Time;durP1;ratioP1;P1;durP2;ratioP2;P2;SDS_P1;SDS_P2;PMS_P1;PMS_P2;Temp;Humidity;BMP_temperature;BMP_pressure;BME280_temperature;BME280_humidity;BME280_pressure;Samples;Min_cycle;Max_cycle;Signal;HPM_P1;HPM_P2
2022/12/10 00:00:24;;;;;;;;;64.00;50.00;;;;;4.15;59.70;100337.97;5060079;28;45205;-47
2022/12/10 00:02:49;;;;;;;;;53.25;42.00;;;;;4.13;60.25;100334.50;5059753;28;45581;-46
2022/12/10 00:05:14;;;;;;;;;64.25;50.00;;;;;4.13;59.92;100340.56;5059655;28;46097;-49
2022/12/10 00:07:40;;;;;;;;;61.00;47.25;;;;;4.12;60.27;100336.22;5059890;28;45166;-46
2022/12/10 00:10:05;;;;;;;;;61.00;45.00;;;;;4.13;60.27;100327.56;5059890;28;45241;-48
2022/12/10 00:12:31;;;;;;;;;56.75;43.75;;;;;4.13;60.40;100329.31;5059569;28;45422;-46
2022/12/10 00:14:56;;;;;;;;;53.25;41.00;;;;;4.13;60.40;100330.16;5059520;28;45331;-50
2022/12/10 00:17:21;;;;;;;;;58.25;45.25;;;;;4.12;60.23;100327.56;5059864;28;45232;-45
2022/12/10 00:19:47;;;;;;;;;54.25;43.00;;;;;4.10;60.19;100324.97;5059803;28;45243;-46
2022/12/10 00:22:12;;;;;;;;;57.50;46.75;;;;;4.11;59.83;100331.88;5075206;28;45306;-45
2022/12/10 00:24:37;;;;;;;;;57.50;43.00;;;;;4.11;59.95;100333.63;5059409;28;46029;-46
2022/12/10 00:27:03;;;;;;;;;53.50;43.50;;;;;4.10;60.62;100337.97;5059456;28;45251;-47
2022/12/10 00:29:28;;;;;;;;;59.00;45.00;;;;;4.10;59.96;100343.16;5059657;28;45238;-48
2022/12/10 00:31:53;;;;;;;;;58.75;43.75;;;;;4.10;60.32;100339.66;5059666;28;45341;-46
2022/12/10 00:34:19;;;;;;;;;53.75;43.00;;;;;4.09;60.33;100348.31;5059475;28;46304;-45
2022/12/10 00:36:46;;;;;;;;;57.50;44.75;;;;;4.11;60.06;100349.22;5075138;28;45436;-46
2022/12/10 00:39:14;;;;;;;;;55.75;45.25;;;;;4.12;60.45;100351.81;5075438;28;45296;-47
2022/12/10 00:41:40;;;;;;;;;62.50;47.25;;;;;4.13;60.13;100345.78;5059120;28;45469;-47
2022/12/10 00:44:05;;;;;;;;;60.25;48.00;;;;;4.13;60.28;100343.16;5074731;28;48374;-46
2022/12/10 00:46:30;;;;;;;;;58.75;43.50;;;;;4.16;60.19;100348.38;5059408;28;45166;-46
2022/12/10 00:48:58;;;;;;;;;52.75;37.75;;;;;4.19;60.13;100351.00;5050852;28;45217;-47
2022/12/10 00:51:25;;;;;;;;;55.00;44.75;;;;;4.19;60.50;100339.75;5061332;28;45544;-48
2022/12/10 00:53:53;;;;;;;;;56.25;43.25;;;;;4.22;60.19;100348.41;5062686;28;45352;-47
2022/12/10 00:56:24;;;;;;;;;59.25;45.50;;;;;4.25;60.38;100355.34;5062443;28;45220;-46
2022/12/10 00:58:50;;;;;;;;;54.75;43.00;;;;;4.28;60.72;100357.13;5061549;28;45390;-48
2022/12/10 01:01:20;;;;;;;;;57.50;46.50;;;;;4.27;60.69;100353.66;5062582;28;45422;-48
2022/12/10 01:03:47;;;;;;;;;56.75;46.25;;;;;4.30;60.37;100348.47;5078004;28;47273;-46
2022/12/10 01:06:17;;;;;;;;;60.25;47.00;;;;;4.32;60.77;100346.72;5062528;28;45349;-49
2022/12/10 01:08:43;;;;;;;;;62.25;44.25;;;;;4.33;60.56;100353.69;5062594;28;45339;-45
2022/12/10 01:11:10;;;;;;;;;55.00;45.00;;;;;4.35;60.83;100345.88;5062245;28;45277;-46
2022/12/10 01:13:36;;;;;;;;;60.75;47.25;;;;;4.38;60.83;100354.56;5062287;28;45327;-47
2022/12/10 01:16:06;;;;;;;;;57.50;44.25;;;;;4.41;60.61;100352.84;5062596;28;45298;-46
2022/12/10 01:18:32;;;;;;;;;58.25;42.75;;;;;4.42;60.51;100357.22;5062544;28;45268;-46
2022/12/10 01:21:06;;;;;;;;;63.50;49.50;;;;;4.45;61.06;100352.84;5062505;28;45343;-46
2022/12/10 01:23:33;;;;;;;;;62.50;47.00;;;;;4.49;60.62;100356.34;5062127;28;45358;-45
2022/12/10 01:26:01;;;;;;;;;62.50;46.00;;;;;4.49;60.76;100361.56;5062057;28;45489;-49
2022/12/10 01:28:28;;;;;;;;;60.25;45.00;;;;;4.51;60.93;100370.25;5062215;28;45490;-47
2022/12/10 01:30:53;;;;;;;;;60.25;44.25;;;;;4.52;61.04;100365.03;5062182;28;45311;-45
2022/12/10 01:33:19;;;;;;;;;64.25;47.25;;;;;4.55;60.92;100365.06;5077601;28;45346;-46
2022/12/10 01:35:44;;;;;;;;;61.75;48.25;;;;;4.56;60.58;100374.59;5062253;28;45306;-46
2022/12/10 01:38:09;;;;;;;;;58.75;47.25;;;;;4.56;60.78;100374.59;5062121;28;45243;-45
2022/12/10 01:40:37;;;;;;;;;57.00;44.75;;;;;4.54;60.94;100368.53;5061987;28;45273;-47
2022/12/10 01:43:03;;;;;;;;;62.25;47.75;;;;;4.57;60.86;100378.09;5061637;28;45494;-46
2022/12/10 01:45:29;;;;;;;;;62.25;47.00;;;;;4.60;60.87;100385.03;5062209;28;45188;-45
2022/12/10 01:47:54;;;;;;;;;59.00;45.75;;;;;4.60;60.83;100390.25;5061549;28;45250;-51
2022/12/10 01:50:19;;;;;;;;;58.50;44.25;;;;;4.62;60.83;100391.13;5054918;28;45206;-48
2022/12/10 01:52:45;;;;;;;;;59.00;48.50;;;;;4.63;60.88;100393.75;5061636;28;45229;-46
2022/12/10 01:55:39;;;;;;;;;60.00;49.00;;;;;4.65;60.72;100401.53;5060449;28;45292;-49
2022/12/10 01:58:04;;;;;;;;;60.50;47.75;;;;;4.67;60.65;100405.91;5061875;28;45306;-48
2022/12/10 02:00:34;;;;;;;;;54.50;43.00;;;;;4.69;60.75;100405.91;5061567;28;45311;-44
2022/12/10 02:03:09;;;;;;;;;61.00;46.50;;;;;4.69;60.48;100404.19;5061175;28;45346;-45
2022/12/10 02:05:44;;;;;;;;;60.75;46.00;;;;;4.70;60.88;100405.94;5061471;28;45330;-45
2022/12/10 02:08:30;;;;;;;;;62.75;48.00;;;;;4.71;60.88;100407.63;5062079;28;45450;-46
2022/12/10 02:11:22;;;;;;;;;62.50;47.25;;;;;4.74;61.25;100422.41;5076947;28;45828;-45
2022/12/10 02:14:09;;;;;;;;;63.00;49.25;;;;;4.76;61.02;100414.63;5061381;28;46142;-44
2022/12/10 02:16:59;;;;;;;;;65.25;47.00;;;;;4.76;61.15;100412.03;5061442;28;45268;-45
2022/12/10 02:19:30;;;;;;;;;64.25;48.25;;;;;4.78;61.01;100413.75;5061757;28;45228;-45
2022/12/10 02:21:58;;;;;;;;;59.75;46.00;;;;;4.79;61.04;100410.31;5061316;28;45322;-45
2022/12/10 02:24:29;;;;;;;;;63.25;48.25;;;;;4.82;61.22;100414.66;5061254;28;45350;-45
2022/12/10 02:27:08;;;;;;;;;61.00;46.75;;;;;4.83;61.06;100408.56;5061099;28;45576;-46
2022/12/10 02:29:35;;;;;;;;;59.25;42.75;;;;;4.83;61.15;100411.16;5061392;28;45490;-48
2022/12/10 02:32:08;;;;;;;;;63.50;48.50;;;;;4.86;61.12;100413.78;5061220;28;45420;-46
2022/12/10 02:34:40;;;;;;;;;60.50;49.25;;;;;4.87;61.16;100416.41;5061201;28;45248;-45
2022/12/10 02:37:15;;;;;;;;;56.00;45.25;;;;;4.88;61.05;100423.34;5061640;27;45272;-48
2022/12/10 02:39:45;;;;;;;;;55.50;40.50;;;;;4.87;61.42;100412.94;5061174;28;45245;-44
2022/12/10 02:42:12;;;;;;;;;59.00;46.75;;;;;4.91;61.04;100422.50;5060722;28;45509;-46
2022/12/10 02:44:42;;;;;;;;;65.25;48.00;;;;;4.93;61.11;100423.38;5061012;28;45193;-46
2022/12/10 02:47:09;;;;;;;;;63.75;49.25;;;;;4.93;61.08;100415.56;5060954;28;45338;-47
2022/12/10 02:49:36;;;;;;;;;55.75;44.00;;;;;4.95;61.48;100423.38;5053676;28;45320;-46
2022/12/10 02:52:11;;;;;;;;;64.25;50.25;;;;;4.96;61.08;100422.53;5059456;28;45454;-46
2022/12/10 02:54:41;;;;;;;;;65.25;47.25;;;;;4.98;60.93;100420.78;5060889;28;46359;-46
2022/12/10 02:57:31;;;;;;;;;57.25;42.50;;;;;4.98;61.12;100424.25;5060508;28;45440;-47
2022/12/10 03:00:15;;;;;;;;;60.75;47.25;;;;;4.98;61.27;100419.06;5061077;28;45415;-45
2022/12/10 03:03:00;;;;;;;;;62.75;43.25;;;;;4.98;61.22;100416.44;5061073;27;45550;-46
2022/12/10 03:05:50;;;;;;;;;59.00;46.00;;;;;4.97;61.29;100419.91;5060510;28;47342;-46
2022/12/10 03:08:32;;;;;;;;;63.50;45.00;;;;;4.97;61.22;100425.13;5060729;28;45649;-45
2022/12/10 03:11:10;;;;;;;;;63.75;47.00;;;;;4.97;61.07;100419.91;5076312;28;45337;-47
2022/12/10 03:13:41;;;;;;;;;57.50;43.75;;;;;4.94;61.41;100419.88;5059558;28;45291;-48
2022/12/10 03:16:09;;;;;;;;;49.25;43.50;;;;;4.97;61.23;100426.84;5060584;28;46216;-45
2022/12/10 03:18:37;;;;;;;;;64.00;49.50;;;;;4.95;61.38;100415.56;5060656;28;45309;-46
2022/12/10 03:21:05;;;;;;;;;59.50;48.50;;;;;4.98;61.33;100415.56;5060799;27;45328;-47
2022/12/10 03:23:34;;;;;;;;;58.25;43.75;;;;;4.98;61.47;100424.25;5060498;28;45441;-46
2022/12/10 03:26:00;;;;;;;;;59.75;47.00;;;;;4.98;61.44;100416.44;5060050;28;46224;-47
2022/12/10 03:28:26;;;;;;;;;59.00;47.75;;;;;4.99;61.10;100420.81;5060469;28;45351;-45
2022/12/10 03:30:53;;;;;;;;;59.75;47.25;;;;;4.97;61.13;100419.03;5060571;28;45334;-48
2022/12/10 03:33:19;;;;;;;;;58.00;47.75;;;;;5.00;61.01;100429.47;5060370;28;45248;-45
2022/12/10 03:35:45;;;;;;;;;59.00;47.00;;;;;5.00;61.29;100432.06;5060305;28;46204;-46
2022/12/10 03:38:11;;;;;;;;;56.75;44.75;;;;;5.01;61.27;100433.81;5060130;28;45349;-48
2022/12/10 03:40:37;;;;;;;;;60.00;46.00;;;;;5.02;61.22;100430.34;5060210;28;45251;-44
2022/12/10 03:43:02;;;;;;;;;64.00;48.50;;;;;5.01;61.10;100429.47;5059991;28;45422;-46
2022/12/10 03:45:28;;;;;;;;;55.75;46.50;;;;;5.01;61.38;100432.06;5060143;28;45200;-45
2022/12/10 03:47:53;;;;;;;;;62.25;47.25;;;;;5.01;61.40;100429.47;5059687;28;45322;-47
2022/12/10 03:50:18;;;;;;;;;57.50;44.75;;;;;5.01;61.40;100424.25;5053228;28;45579;-45
2022/12/10 03:52:44;;;;;;;;;63.50;48.75;;;;;5.02;61.30;100438.16;5059783;28;45545;-48
2022/12/10 03:55:10;;;;;;;;;58.25;42.00;;;;;5.01;61.33;100439.88;5059700;28;46201;-45
2022/12/10 03:57:35;;;;;;;;;59.00;44.50;;;;;5.00;61.36;100443.34;5059729;28;45302;-49
2022/12/10 04:00:02;;;;;;;;;58.50;45.00;;;;;5.00;61.38;100439.88;5060164;28;45258;-48
2022/12/10 04:02:27;;;;;;;;;55.75;42.25;;;;;5.00;61.43;100443.34;5059675;28;45248;-47
2022/12/10 04:04:52;;;;;;;;;56.00;44.00;;;;;5.01;61.31;100442.50;5059405;28;46267;-45
2022/12/10 04:07:18;;;;;;;;;56.50;44.75;;;;;5.01;61.13;100452.06;5059637;28;45294;-45
2022/12/10 04:09:43;;;;;;;;;57.25;41.00;;;;;5.00;61.35;100445.09;5059780;28;45312;-46
2022/12/10 04:12:08;;;;;;;;;54.00;40.75;;;;;4.99;61.33;100449.44;5059603;28;45226;-46
2022/12/10 04:17:18;;;;;;;;;55.50;44.75;;;;;5.00;61.18;100450.31;5059976;28;45362;-46
2022/12/10 04:19:43;;;;;;;;;51.50;42.00;;;;;4.99;61.36;100443.34;5059756;28;45442;-46
2022/12/10 04:26:51;;;;;;;;;52.50;42.75;;;;;4.98;61.37;100446.81;5061075;28;45673;-46
2022/12/10 04:27:50;;;;;;;;;53.25;40.50;;;;;4.98;61.05;100450.31;5063049;28;45193;-45
2022/12/10 04:30:16;;;;;;;;;47.25;41.75;;;;;4.98;61.28;100446.81;5063478;28;45383;-46
2022/12/10 04:32:41;;;;;;;;;52.00;42.25;;;;;4.98;61.17;100454.63;5063197;28;45496;-44
2022/12/10 04:35:07;;;;;;;;;45.00;39.50;;;;;4.96;61.21;100461.59;5063212;28;45312;-48
2022/12/10 04:37:32;;;;;;;;;55.50;41.25;;;;;4.97;61.15;100460.69;5063081;28;45229;-44
2022/12/10 04:39:58;;;;;;;;;47.75;40.50;;;;;4.96;61.28;100458.97;5078823;28;45324;-47
2022/12/10 04:42:23;;;;;;;;;49.50;40.50;;;;;4.96;61.16;100461.59;5078478;28;45363;-46
2022/12/10 04:44:49;;;;;;;;;52.00;39.50;;;;;4.95;61.03;100470.25;5063150;28;46494;-49
2022/12/10 04:47:14;;;;;;;;;48.25;41.50;;;;;4.94;61.33;100473.72;5062840;28;45370;-47
2022/12/10 04:49:40;;;;;;;;;52.50;41.50;;;;;4.92;61.06;100473.72;5055502;28;45290;-47
2022/12/10 04:52:07;;;;;;;;;55.00;41.25;;;;;4.91;61.29;100474.56;5062650;28;45429;-45
2022/12/10 04:54:33;;;;;;;;;33.75;33.25;;;;;4.91;61.02;100476.31;5062857;28;45411;-47
2022/12/10 04:56:58;;;;;;;;;53.75;37.75;;;;;4.90;60.93;100471.97;5062444;28;45315;-47
2022/12/10 04:59:24;;;;;;;;;54.00;43.50;;;;;4.88;61.06;100471.97;5062854;27;45232;-45
2022/12/10 05:01:49;;;;;;;;;56.25;43.00;;;;;4.86;61.08;100468.47;5062651;28;45397;-44
2022/12/10 05:04:17;;;;;;;;;49.75;40.00;;;;;4.84;60.70;100470.19;5062475;28;46162;-47
2022/12/10 05:06:43;;;;;;;;;45.50;37.00;;;;;4.79;60.94;100467.59;5062480;28;45384;-45
2022/12/10 05:09:10;;;;;;;;;41.25;31.25;;;;;4.78;61.05;100465.84;5062687;28;45344;-46
2022/12/10 05:11:35;;;;;;;;;39.25;37.50;;;;;4.76;61.03;100470.16;5062075;28;45330;-45
2022/12/10 05:14:01;;;;;;;;;44.00;32.25;;;;;4.75;61.02;100475.34;5062639;28;45392;-45
2022/12/10 05:16:29;;;;;;;;;44.50;37.25;;;;;4.73;60.77;100472.75;5062469;28;45334;-46
2022/12/10 05:18:55;;;;;;;;;46.00;37.50;;;;;4.69;60.89;100465.78;5062753;28;45344;-53
2022/12/10 05:21:23;;;;;;;;;43.25;35.75;;;;;4.67;60.95;100464.91;5062225;28;46370;-47
2022/12/10 05:23:50;;;;;;;;;49.00;38.50;;;;;4.64;60.89;100473.56;5062444;28;46129;-46
2022/12/10 05:26:18;;;;;;;;;57.75;43.75;;;;;4.60;60.66;100466.59;5061901;28;45537;-47
2022/12/10 05:28:49;;;;;;;;;51.00;39.50;;;;;4.56;61.06;100472.63;5062464;28;45319;-47
2022/12/10 05:31:21;;;;;;;;;51.50;43.25;;;;;4.52;61.00;100471.75;5062175;28;45272;-43
2022/12/10 05:33:47;;;;;;;;;48.00;36.00;;;;;4.49;60.89;100473.47;5062315;28;45405;-43
2022/12/10 05:36:14;;;;;;;;;54.00;43.25;;;;;4.46;60.68;100487.31;5061235;28;45299;-45
2022/12/10 05:38:40;;;;;;;;;57.75;45.75;;;;;4.41;60.59;100489.03;5062346;28;45311;-46
2022/12/10 05:41:10;;;;;;;;;63.00;47.75;;;;;4.39;60.68;100488.16;5061649;28;45403;-45
2022/12/10 05:43:35;;;;;;;;;52.50;40.00;;;;;4.32;60.74;100479.41;5061925;28;45312;-44
2022/12/10 05:46:03;;;;;;;;;39.75;31.75;;;;;4.31;60.63;100484.63;5062061;28;45229;-45
2022/12/10 05:48:29;;;;;;;;;41.75;38.00;;;;;4.28;60.91;100490.66;5056878;28;45671;-44
2022/12/10 05:50:55;;;;;;;;;39.50;33.25;;;;;4.26;60.62;100499.31;5059518;28;45340;-44
2022/12/10 05:53:20;;;;;;;;;41.75;36.00;;;;;4.23;60.50;100501.03;5062085;27;45271;-44
2022/12/10 05:55:46;;;;;;;;;33.75;29.00;;;;;4.21;60.82;100510.56;5060425;28;45328;-44
2022/12/10 05:58:11;;;;;;;;;37.25;29.00;;;;;4.18;60.38;100507.06;5043848;28;45338;-45
2022/12/10 06:00:39;;;;;;;;;42.25;32.25;;;;;4.16;60.69;100516.56;5061834;28;45370;-44
2022/12/10 06:03:05;;;;;;;;;35.00;31.50;;;;;4.13;60.91;100517.44;5077188;28;47134;-45
2022/12/10 06:05:38;;;;;;;;;44.00;36.25;;;;;4.10;61.09;100514.81;5061602;28;45308;-44
2022/12/10 06:08:04;;;;;;;;;29.50;24.75;;;;;4.11;60.99;100518.28;5062020;28;45226;-45
2022/12/10 06:10:30;;;;;;;;;30.75;30.75;;;;;4.12;60.90;100514.81;5077107;28;45265;-47
2022/12/10 06:12:55;;;;;;;;;43.25;32.25;;;;;4.12;60.84;100518.28;5061483;28;46002;-46
2022/12/10 06:15:20;;;;;;;;;39.00;29.25;;;;;4.12;61.16;100518.28;5061527;28;45270;-49
2022/12/10 06:17:46;;;;;;;;;30.50;25.75;;;;;4.12;60.85;100523.47;5061836;28;45206;-44
2022/12/10 06:20:11;;;;;;;;;32.00;23.75;;;;;4.12;60.99;100528.69;5061309;28;45573;-44
2022/12/10 06:22:36;;;;;;;;;35.75;27.00;;;;;4.11;60.48;100526.94;5061369;28;45213;-44
2022/12/10 06:25:02;;;;;;;;;34.75;26.00;;;;;4.10;61.07;100522.63;5061079;28;45224;-45
2022/12/10 06:27:30;;;;;;;;;32.50;26.25;;;;;4.12;60.82;100533.88;5061388;28;45242;-47
2022/12/10 06:29:55;;;;;;;;;30.00;28.50;;;;;4.14;60.82;100531.28;5061211;28;45483;-46
2022/12/10 06:32:20;;;;;;;;;38.25;25.75;;;;;4.15;60.94;100541.72;5061126;28;45268;-47
2022/12/10 06:34:46;;;;;;;;;26.00;22.50;;;;;4.17;60.85;100534.78;5061193;28;45458;-44
2022/12/10 06:37:11;;;;;;;;;25.25;22.50;;;;;4.19;60.83;100537.44;5061489;28;45378;-44
2022/12/10 06:39:36;;;;;;;;;28.25;25.75;;;;;4.19;60.81;100542.63;5060909;28;45527;-47
2022/12/10 06:42:02;;;;;;;;;29.00;25.75;;;;;4.23;61.07;100547.00;5060934;28;46263;-45
2022/12/10 06:44:27;;;;;;;;;30.75;25.00;;;;;4.25;60.86;100549.59;5060912;28;45283;-47
2022/12/10 06:46:53;;;;;;;;;30.50;26.50;;;;;4.27;60.74;100538.34;5059846;28;45516;-45
2022/12/10 06:49:18;;;;;;;;;37.00;29.50;;;;;4.30;61.29;100545.31;5068918;28;45453;-46
2022/12/10 06:51:43;;;;;;;;;33.25;28.50;;;;;4.31;61.07;100550.50;5060780;28;45315;-46
2022/12/10 06:54:08;;;;;;;;;27.25;22.25;;;;;4.34;60.58;100553.16;5042739;28;45439;-45
2022/12/10 06:56:34;;;;;;;;;31.50;27.00;;;;;4.33;60.78;100551.41;5060707;28;45360;-45
2022/12/10 06:58:59;;;;;;;;;32.00;27.75;;;;;4.38;60.80;100559.25;5059567;28;45277;-47
2022/12/10 07:01:27;;;;;;;;;30.75;23.25;;;;;4.39;60.59;100555.81;5060744;28;45794;-49
2022/12/10 07:03:55;;;;;;;;;32.50;29.25;;;;;4.42;60.88;100566.22;5060753;27;45220;-47
2022/12/10 07:06:23;;;;;;;;;30.50;28.25;;;;;4.46;61.16;100573.19;5043032;28;45267;-46
2022/12/10 07:08:48;;;;;;;;;41.50;30.50;;;;;4.46;60.75;100573.19;5060661;28;45302;-45
2022/12/10 07:11:16;;;;;;;;;30.50;24.00;;;;;4.49;60.99;100578.44;5060097;28;45498;-46
2022/12/10 07:13:42;;;;;;;;;33.25;27.75;;;;;4.50;61.07;100577.59;5060651;28;45282;-46
2022/12/10 07:16:16;;;;;;;;;41.25;30.50;;;;;4.52;61.14;100580.19;5060822;28;45500;-47
2022/12/10 07:18:41;;;;;;;;;37.75;33.75;;;;;4.54;60.91;100581.06;5060537;28;45351;-46
2022/12/10 07:21:18;;;;;;;;;29.75;28.50;;;;;4.55;60.93;100588.91;5060364;28;45411;-46
2022/12/10 07:23:44;;;;;;;;;36.25;28.00;;;;;4.56;60.83;100587.16;5060311;28;45423;-46
2022/12/10 07:26:10;;;;;;;;;35.50;32.00;;;;;4.58;61.03;100592.38;5060200;28;45329;-46
2022/12/10 07:28:35;;;;;;;;;34.00;30.50;;;;;4.58;61.03;100601.06;5060544;28;45245;-46
2022/12/10 07:31:06;;;;;;;;;38.00;28.75;;;;;4.59;61.24;100602.81;5060172;28;45378;-44
2022/12/10 07:33:31;;;;;;;;;31.00;22.50;;;;;4.61;61.09;100600.22;5060370;28;45233;-46
2022/12/10 07:35:57;;;;;;;;;34.00;25.25;;;;;4.58;60.93;100598.47;5060422;28;45431;-46
2022/12/10 07:38:23;;;;;;;;;30.00;26.75;;;;;4.61;61.02;100597.63;5060451;28;45219;-48
2022/12/10 07:40:49;;;;;;;;;29.75;26.50;;;;;4.63;60.78;100590.66;5059927;28;46388;-45
2022/12/10 07:43:15;;;;;;;;;31.50;28.50;;;;;4.65;61.02;100604.59;5060097;28;45349;-46
2022/12/10 07:45:40;;;;;;;;;35.00;27.75;;;;;4.66;60.72;100601.97;5059945;28;45432;-45
2022/12/10 07:48:05;;;;;;;;;33.50;30.00;;;;;4.69;61.19;100611.53;5057958;28;45318;-44
2022/12/10 07:50:31;;;;;;;;;32.75;31.50;;;;;4.69;60.77;100606.34;5054315;28;45335;-48
2022/12/10 07:52:56;;;;;;;;;40.75;31.50;;;;;4.68;60.87;100613.28;5059851;28;45479;-47
2022/12/10 07:55:21;;;;;;;;;39.50;32.00;;;;;4.73;60.72;100618.53;5059822;27;45311;-45
2022/12/10 07:57:47;;;;;;;;;39.75;35.75;;;;;4.74;60.89;100624.63;5059976;28;45232;-47
2022/12/10 08:00:13;;;;;;;;;40.75;35.50;;;;;4.75;61.13;100622.00;5059299;28;46420;-45
2022/12/10 08:02:38;;;;;;;;;35.75;25.75;;;;;4.76;61.10;100626.38;5059713;28;45319;-47
2022/12/10 08:05:03;;;;;;;;;31.75;28.25;;;;;4.74;60.78;100612.44;5059986;28;45337;-46
2022/12/10 08:07:29;;;;;;;;;38.75;29.50;;;;;4.78;61.10;100615.97;5058687;28;45207;-46
2022/12/10 08:09:54;;;;;;;;;40.50;32.75;;;;;4.80;60.91;100625.53;5059528;28;46275;-46
2022/12/10 08:12:19;;;;;;;;;33.00;28.00;;;;;4.83;60.99;100627.28;5059857;28;45335;-45
2022/12/10 08:14:45;;;;;;;;;29.75;25.00;;;;;4.82;61.09;100625.56;5059867;28;45259;-46
2022/12/10 08:17:10;;;;;;;;;40.75;29.75;;;;;4.85;61.21;100634.25;5059873;28;45536;-47
2022/12/10 08:19:35;;;;;;;;;36.00;31.00;;;;;4.87;61.40;100642.94;5059652;28;46304;-47
2022/12/10 08:22:01;;;;;;;;;37.25;32.25;;;;;4.88;61.29;100647.31;5059675;28;45268;-45
2022/12/10 08:24:26;;;;;;;;;45.75;36.75;;;;;4.91;61.17;100654.25;5059844;28;45292;-45
2022/12/10 08:26:51;;;;;;;;;35.25;31.50;;;;;4.93;60.86;100646.44;5059508;28;45283;-46
2022/12/10 08:29:17;;;;;;;;;34.50;30.75;;;;;4.94;60.89;100650.81;5059468;28;46181;-49
2022/12/10 08:31:42;;;;;;;;;36.75;34.75;;;;;4.98;60.90;100657.78;5059588;28;45251;-47
2022/12/10 08:34:14;;;;;;;;;34.75;32.00;;;;;4.98;60.98;100660.38;5059725;28;45514;-46
2022/12/10 08:36:39;;;;;;;;;38.00;33.75;;;;;4.99;60.99;100665.63;5059560;28;45256;-47
2022/12/10 08:39:04;;;;;;;;;33.25;29.75;;;;;4.99;61.01;100662.13;5059496;28;46236;-47
2022/12/10 08:41:30;;;;;;;;;33.50;26.75;;;;;5.02;60.95;100673.44;5074699;28;45432;-46
2022/12/10 08:43:55;;;;;;;;;27.75;27.50;;;;;5.04;61.25;100679.56;5059295;28;45346;-47
2022/12/10 08:46:21;;;;;;;;;34.25;28.25;;;;;5.05;61.22;100683.00;5059700;28;45214;-48
2022/12/10 08:48:46;;;;;;;;;40.50;32.00;;;;;5.04;61.29;100682.16;5051458;28;45377;-46
2022/12/10 08:51:15;;;;;;;;;17.50;15.75;;;;;5.04;61.13;100679.56;5059182;28;45502;-47
2022/12/10 08:53:41;;;;;;;;;31.25;26.00;;;;;5.07;61.06;100685.63;5059350;28;45311;-50
2022/12/10 08:56:06;;;;;;;;;57.75;44.00;;;;;5.07;60.99;100676.09;5057040;28;45339;-47
2022/12/10 08:58:32;;;;;;;;;32.00;27.50;;;;;5.10;61.34;100680.47;5074292;27;47102;-50
2022/12/10 09:00:57;;;;;;;;;39.00;34.25;;;;;5.12;61.07;100690.03;5059028;28;45369;-50
2022/12/10 09:03:23;;;;;;;;;42.00;32.75;;;;;5.14;60.91;100688.28;5058880;28;45520;-49
2022/12/10 09:05:49;;;;;;;;;34.75;29.25;;;;;5.15;60.96;100679.59;5058928;28;45299;-47
2022/12/10 09:08:14;;;;;;;;;34.75;29.75;;;;;5.16;60.87;100691.78;5058804;28;46437;-47
2022/12/10 09:10:40;;;;;;;;;26.75;21.50;;;;;5.17;60.89;100693.53;5058697;28;45334;-47
2022/12/10 09:13:07;;;;;;;;;36.50;32.25;;;;;5.17;61.13;100698.75;5062400;28;45371;-47
2022/12/10 09:15:32;;;;;;;;;36.00;32.00;;;;;5.20;60.84;100690.94;5062380;28;45303;-46
2022/12/10 09:17:58;;;;;;;;;37.75;30.75;;;;;5.24;60.81;100701.41;5078080;28;48165;-46
2022/12/10 09:20:23;;;;;;;;;36.25;30.50;;;;;5.26;61.06;100704.88;5062574;28;45166;-53
2022/12/10 09:22:49;;;;;;;;;35.25;27.50;;;;;5.28;61.02;100708.38;5062447;28;45330;-46
2022/12/10 09:25:16;;;;;;;;;26.50;25.75;;;;;5.29;60.91;100702.28;5062187;28;45512;-48
2022/12/10 09:27:42;;;;;;;;;34.75;28.00;;;;;5.32;60.99;100705.78;5062638;27;45442;-49
2022/12/10 09:30:09;;;;;;;;;40.75;33.00;;;;;5.34;60.87;100700.59;5062371;28;45301;-45
2022/12/10 09:32:34;;;;;;;;;34.50;28.00;;;;;5.36;61.03;100698.88;5062262;28;45352;-46
2022/12/10 09:35:00;;;;;;;;;34.75;30.75;;;;;5.40;61.01;100707.59;5062360;28;45157;-46
2022/12/10 09:37:25;;;;;;;;;30.75;29.00;;;;;5.44;61.16;100705.00;5062182;28;45960;-47
2022/12/10 09:39:51;;;;;;;;;38.25;28.75;;;;;5.51;61.02;100704.19;5061919;28;45284;-45
2022/12/10 09:42:28;;;;;;;;;31.00;29.00;;;;;5.60;61.28;100708.56;5062123;28;45233;-47
2022/12/10 09:45:18;;;;;;;;;39.25;34.75;;;;;5.75;61.18;100712.13;5062068;28;45205;-47
2022/12/10 09:47:57;;;;;;;;;27.00;24.50;;;;;5.91;61.11;100708.75;5061914;28;45685;-45
2022/12/10 09:50:32;;;;;;;;;32.00;27.25;;;;;6.05;61.31;100706.22;5070907;28;45253;-45
2022/12/10 09:52:59;;;;;;;;;39.50;32.50;;;;;6.18;61.29;100709.75;5061831;27;45221;-48
2022/12/10 09:55:36;;;;;;;;;44.75;37.25;;;;;6.32;61.16;100704.56;5061696;28;45605;-45
2022/12/10 09:58:04;;;;;;;;;34.75;33.25;;;;;6.45;61.35;100706.34;5061803;28;45355;-46
2022/12/10 10:00:35;;;;;;;;;42.75;33.00;;;;;6.57;61.13;100712.47;5061700;28;45240;-45
2022/12/10 10:03:01;;;;;;;;;41.25;33.00;;;;;6.66;61.10;100715.06;5061874;28;45407;-48
2022/12/10 10:05:34;;;;;;;;;39.25;32.75;;;;;6.75;61.07;100709.00;5061499;28;45340;-47
2022/12/10 10:08:03;;;;;;;;;42.75;34.50;;;;;6.91;61.18;100715.09;5061609;27;45438;-46
2022/12/10 10:10:35;;;;;;;;;41.25;35.25;;;;;7.03;61.18;100709.91;5061268;28;45297;-46
2022/12/10 10:13:14;;;;;;;;;40.00;34.50;;;;;7.16;61.21;100705.53;5061801;28;45515;-47
2022/12/10 10:15:42;;;;;;;;;36.00;31.50;;;;;7.27;61.12;100713.34;5061844;27;45541;-45
2022/12/10 10:18:26;;;;;;;;;41.25;34.00;;;;;7.37;61.19;100709.88;5061558;28;45311;-49
2022/12/10 10:20:51;;;;;;;;;40.50;34.00;;;;;7.45;61.00;100717.69;5061553;28;45282;-45
2022/12/10 10:23:17;;;;;;;;;38.75;28.50;;;;;7.53;61.13;100705.44;5061051;28;45267;-47
2022/12/10 10:25:44;;;;;;;;;41.25;30.50;;;;;7.60;60.85;100711.56;5061293;28;45347;-46
2022/12/10 10:28:13;;;;;;;;;39.75;34.50;;;;;7.65;60.88;100713.28;5061290;28;45460;-47
2022/12/10 10:30:42;;;;;;;;;52.50;43.00;;;;;7.73;61.00;100707.16;5061349;28;45318;-45
2022/12/10 10:33:10;;;;;;;;;41.50;36.00;;;;;7.78;60.85;100700.16;5061483;28;45237;-45
2022/12/10 10:35:44;;;;;;;;;43.00;34.00;;;;;7.86;60.63;100700.13;5061314;28;45335;-45
2022/12/10 10:38:20;;;;;;;;;41.75;36.25;;;;;7.91;60.54;100706.22;5061082;28;45289;-45
2022/12/10 10:40:52;;;;;;;;;41.00;32.50;;;;;7.91;60.75;100703.59;5060843;28;45288;-47
2022/12/10 10:43:32;;;;;;;;;48.50;36.50;;;;;7.98;60.47;100702.72;5059902;28;45423;-45
2022/12/10 10:46:01;;;;;;;;;40.75;33.25;;;;;8.03;60.50;100703.56;5060943;28;45465;-46
2022/12/10 10:48:28;;;;;;;;;35.00;28.75;;;;;8.11;60.59;100706.13;5055949;28;45291;-48
2022/12/10 10:51:04;;;;;;;;;42.50;34.00;;;;;8.18;60.60;100707.00;5058727;28;45390;-45
2022/12/10 10:53:43;;;;;;;;;37.25;30.75;;;;;8.26;60.70;100700.84;5059666;28;45379;-46
2022/12/10 10:56:19;;;;;;;;;41.25;34.75;;;;;8.38;60.69;100707.75;5060337;27;45341;-45
2022/12/10 10:58:53;;;;;;;;;44.25;36.00;;;;;8.48;60.95;100703.38;5060683;28;46318;-47
2022/12/10 11:01:19;;;;;;;;;44.00;36.75;;;;;8.55;60.63;100706.81;5059573;28;45420;-47
2022/12/10 11:03:48;;;;;;;;;48.50;38.25;;;;;8.61;60.39;100710.25;5060939;28;45348;-48
2022/12/10 11:06:13;;;;;;;;;38.25;34.00;;;;;8.66;60.12;100712.84;5060726;28;45442;-47
2022/12/10 11:08:42;;;;;;;;;42.00;36.00;;;;;8.68;59.92;100713.72;5076165;27;46732;-50
2022/12/10 11:11:20;;;;;;;;;49.00;38.00;;;;;8.68;60.20;100715.44;5060050;28;45347;-47
2022/12/10 11:13:46;;;;;;;;;50.50;37.25;;;;;8.67;59.97;100713.72;5060502;28;45338;-49
2022/12/10 11:16:18;;;;;;;;;43.75;36.75;;;;;8.67;59.99;100713.72;5060390;28;45544;-46
2022/12/10 11:19:04;;;;;;;;;40.50;33.50;;;;;8.63;59.87;100720.75;5060292;27;45431;-46
2022/12/10 11:21:31;;;;;;;;;52.25;37.00;;;;;8.55;59.81;100712.94;5060013;28;45421;-46
2022/12/10 11:23:57;;;;;;;;;44.25;38.25;;;;;8.52;59.96;100709.47;5060408;28;45319;-46
2022/12/10 11:26:33;;;;;;;;;42.75;35.00;;;;;8.54;59.72;100723.41;5060007;28;45191;-48